Lowell Highlands, MA

10 Minute Time Series

05-24-2019 03:20 PM

TimeTempHumidityDewpointBarometerWindSpeedWindGustWind DirRain
12:10 AM59.0°F93%57.0°F29.698 inHg0 mph2 mph N/A (N/A)0.00 in
12:20 AM58.9°F93%56.9°F29.693 inHg1 mph2 mph22° (NNE)0.00 in
12:30 AM58.8°F93%56.8°F29.685 inHg0 mph2 mph N/A (N/A)0.01 in
12:40 AM58.7°F94%57.0°F29.682 inHg0 mph1 mph N/A (N/A)0.00 in
12:50 AM58.4°F93%56.4°F29.678 inHg0 mph0 mph N/A (N/A)0.00 in
01:00 AM58.2°F94%56.5°F29.673 inHg0 mph0 mph N/A (N/A)0.00 in
01:10 AM58.0°F94%56.3°F29.673 inHg0 mph2 mph N/A (N/A)0.00 in
01:20 AM58.0°F94%56.3°F29.672 inHg0 mph2 mph N/A (N/A)0.00 in
01:30 AM58.2°F94%56.5°F29.671 inHg1 mph2 mph338° (NNW)0.00 in
01:40 AM58.7°F95%57.3°F29.665 inHg2 mph4 mph225° (SW)0.00 in
01:50 AM59.0°F95%57.6°F29.659 inHg2 mph5 mph225° (SW)0.00 in
02:00 AM59.2°F95%57.8°F29.657 inHg2 mph4 mph202° (SSW)0.00 in
02:10 AM59.3°F95%57.9°F29.653 inHg2 mph5 mph225° (SW)0.00 in
02:20 AM59.2°F95%57.8°F29.649 inHg2 mph6 mph180° (S)0.00 in
02:30 AM59.1°F95%57.7°F29.645 inHg1 mph3 mph225° (SW)0.00 in
02:40 AM59.0°F95%57.6°F29.642 inHg1 mph5 mph248° (WSW)0.00 in
02:50 AM59.1°F95%57.7°F29.642 inHg2 mph5 mph225° (SW)0.00 in
03:00 AM59.1°F95%57.7°F29.635 inHg2 mph5 mph225° (SW)0.00 in
03:10 AM59.2°F94%57.5°F29.631 inHg2 mph5 mph225° (SW)0.00 in
03:20 AM59.3°F94%57.6°F29.628 inHg2 mph5 mph225° (SW)0.00 in
03:30 AM59.2°F94%57.5°F29.622 inHg2 mph6 mph225° (SW)0.00 in
03:40 AM59.1°F93%57.1°F29.620 inHg2 mph6 mph225° (SW)0.00 in
03:50 AM58.9°F93%56.9°F29.615 inHg2 mph4 mph225° (SW)0.00 in
04:00 AM58.8°F93%56.8°F29.613 inHg2 mph6 mph248° (WSW)0.00 in
04:10 AM58.5°F93%56.5°F29.607 inHg1 mph3 mph225° (SW)0.00 in
04:20 AM58.4°F93%56.4°F29.610 inHg2 mph6 mph225° (SW)0.00 in
04:30 AM58.3°F93%56.3°F29.608 inHg2 mph4 mph248° (WSW)0.00 in
04:40 AM58.4°F93%56.4°F29.614 inHg2 mph5 mph225° (SW)0.00 in
04:50 AM58.3°F92%56.0°F29.612 inHg2 mph5 mph202° (SSW)0.00 in
05:00 AM58.1°F92%55.8°F29.611 inHg2 mph7 mph225° (SW)0.00 in
05:10 AM58.0°F92%55.7°F29.600 inHg2 mph5 mph225° (SW)0.00 in
05:20 AM58.1°F91%55.5°F29.603 inHg3 mph8 mph225° (SW)0.00 in
05:30 AM58.0°F90%55.1°F29.609 inHg1 mph6 mph68° (ENE)0.00 in
05:40 AM58.0°F89%54.8°F29.610 inHg2 mph5 mph248° (WSW)0.00 in
05:50 AM58.1°F88%54.6°F29.619 inHg2 mph7 mph248° (WSW)0.00 in
06:00 AM58.2°F87%54.3°F29.623 inHg2 mph8 mph225° (SW)0.00 in
06:10 AM58.6°F86%54.4°F29.626 inHg2 mph6 mph225° (SW)0.00 in
06:20 AM58.7°F85%54.2°F29.632 inHg2 mph6 mph270° (W)0.00 in
06:30 AM58.9°F85%54.4°F29.633 inHg3 mph8 mph270° (W)0.00 in
06:40 AM59.2°F84%54.4°F29.637 inHg3 mph9 mph225° (SW)0.00 in
06:50 AM59.4°F84%54.6°F29.639 inHg2 mph8 mph292° (WNW)0.00 in
07:00 AM59.7°F83%54.5°F29.639 inHg3 mph7 mph225° (SW)0.00 in
07:10 AM60.1°F83%54.9°F29.640 inHg2 mph6 mph292° (WNW)0.00 in
07:20 AM60.5°F82%55.0°F29.647 inHg2 mph9 mph315° (NW)0.00 in
07:30 AM60.6°F81%54.7°F29.648 inHg3 mph7 mph225° (SW)0.00 in
07:40 AM61.5°F79%54.9°F29.646 inHg3 mph7 mph202° (SSW)0.00 in
07:50 AM62.5°F77%55.2°F29.650 inHg3 mph9 mph292° (WNW)0.00 in
08:00 AM63.2°F74%54.8°F29.651 inHg4 mph15 mph248° (WSW)0.00 in
08:10 AM64.1°F73%55.3°F29.652 inHg4 mph8 mph225° (SW)0.00 in
08:20 AM64.6°F73%55.7°F29.652 inHg3 mph10 mph270° (W)0.00 in
08:30 AM63.8°F73%55.0°F29.653 inHg4 mph9 mph270° (W)0.00 in
08:40 AM63.5°F74%55.1°F29.653 inHg4 mph12 mph270° (W)0.00 in
08:50 AM63.4°F74%55.0°F29.660 inHg4 mph9 mph315° (NW)0.00 in
09:00 AM63.6°F74%55.2°F29.663 inHg5 mph14 mph315° (NW)0.00 in
09:10 AM64.4°F72%55.2°F29.666 inHg4 mph10 mph315° (NW)0.00 in
09:20 AM64.7°F71%55.1°F29.673 inHg6 mph15 mph315° (NW)0.00 in
09:30 AM65.5°F69%55.1°F29.677 inHg6 mph19 mph270° (W)0.00 in
09:40 AM65.5°F68%54.7°F29.681 inHg5 mph11 mph315° (NW)0.00 in
09:50 AM64.6°F70%54.6°F29.682 inHg5 mph15 mph315° (NW)0.00 in
10:00 AM65.5°F69%55.1°F29.680 inHg6 mph20 mph292° (WNW)0.00 in
10:10 AM65.1°F67%53.9°F29.688 inHg7 mph14 mph292° (WNW)0.00 in
10:20 AM66.0°F65%53.9°F29.684 inHg7 mph18 mph315° (NW)0.00 in
10:30 AM66.1°F62%52.7°F29.694 inHg7 mph20 mph338° (NNW)0.00 in
10:40 AM65.8°F62%52.4°F29.704 inHg5 mph12 mph315° (NW)0.00 in
10:50 AM65.4°F62%52.0°F29.709 inHg8 mph20 mph315° (NW)0.00 in
11:00 AM65.8°F61%52.0°F29.708 inHg8 mph21 mph315° (NW)0.00 in
11:10 AM66.7°F60%52.4°F29.706 inHg8 mph20 mph315° (NW)0.00 in
11:20 AM66.7°F59%51.9°F29.720 inHg8 mph18 mph315° (NW)0.00 in
11:30 AM66.6°F60%52.3°F29.721 inHg7 mph19 mph315° (NW)0.00 in
11:40 AM66.3°F59%51.5°F29.733 inHg7 mph18 mph315° (NW)0.00 in
11:50 AM65.8°F60%51.5°F29.732 inHg8 mph20 mph315° (NW)0.00 in
12:00 PM66.7°F59%51.9°F29.739 inHg9 mph20 mph315° (NW)0.00 in
12:10 PM66.2°F59%51.4°F29.742 inHg10 mph24 mph315° (NW)0.00 in
12:20 PM66.4°F59%51.6°F29.750 inHg8 mph17 mph338° (NNW)0.00 in
12:30 PM66.5°F59%51.7°F29.751 inHg8 mph23 mph338° (NNW)0.00 in
12:40 PM66.6°F58%51.4°F29.755 inHg10 mph20 mph315° (NW)0.00 in
12:50 PM66.6°F58%51.4°F29.758 inHg8 mph19 mph338° (NNW)0.00 in
01:00 PM66.9°F56%50.7°F29.751 inHg11 mph25 mph315° (NW)0.00 in
01:10 PM67.7°F57%51.9°F29.762 inHg9 mph19 mph315° (NW)0.00 in
01:20 PM67.4°F56%51.2°F29.764 inHg11 mph22 mph338° (NNW)0.00 in
01:30 PM67.8°F54%50.5°F29.769 inHg10 mph24 mph315° (NW)0.00 in
01:40 PM68.2°F55%51.4°F29.775 inHg9 mph21 mph338° (NNW)0.00 in
01:50 PM67.8°F54%50.5°F29.786 inHg7 mph20 mph315° (NW)0.00 in
02:00 PM67.1°F54%49.9°F29.796 inHg9 mph20 mph0° (N)0.00 in
02:10 PM66.8°F55%50.1°F29.808 inHg9 mph18 mph338° (NNW)0.00 in
02:20 PM66.8°F56%50.6°F29.814 inHg7 mph18 mph0° (N)0.00 in
02:30 PM66.6°F57%50.9°F29.820 inHg5 mph15 mph315° (NW)0.00 in
02:40 PM66.7°F57%51.0°F29.821 inHg7 mph16 mph338° (NNW)0.00 in
02:50 PM67.0°F56%50.8°F29.834 inHg9 mph20 mph0° (N)0.00 in
03:00 PM67.4°F55%50.7°F29.838 inHg8 mph18 mph338° (NNW)0.00 in
03:10 PM66.8°F55%50.1°F29.848 inHg8 mph22 mph0° (N)0.00 in
03:20 PM66.7°F56%50.5°F29.853 inHg7 mph18 mph338° (NNW)0.00 in